Terminal Aerodrome Forecast
Issued by NWS Bismarck, ND

Home | Current Version | Previous Version | Text Only | Print | Product List | Glossary On
Versions: 1 2 3 4 5 6 7 8 9 10 11 12 13 14 15 16 17
053
FTUS43 KBIS 242049 AAB
TAFISN
TAF AMD
KISN 242049Z 2421/2518 30018G28KT P6SM VCSH OVC040
     FM250000 32016G25KT P6SM VCSH OVC025
     FM250300 32013G21KT P6SM OVC015
     FM250700 32007KT P6SM BKN060
     FM251200 28005KT P6SM SCT120=

USA.gov is the U.S. government's official web portal to all federal, state and local government web resources and services.